Elisalex Schulte — 9V9154 — position and weather

sailwx.info

Track history (hours):
 
Tides and Currents Weather Stations Pressure Air Temp Water Temp Dewpoint Dewpoint Depression Visibility Wind Speed Wind Dir Waves Ship Positions

Elisalex Schulte

Last reported at 2016-Sep-20 06:29 UTC. Time now 2016-Sep-25 10:36 UTC.
Position N 28°29' W 016°14'.

Length 144 m; draft 8.9 m.

Type: Tanker. MMSI: 563052000.

Date/timePositionNaut miles runAvg speedWind from/ knotsBaromVisibWave heightAir tempDewpointWater temp
2016-Sep-20 06:29N 28°29' W 016°14'35 8.8
2016-Sep-20 02:33N 28°45' W 015°38'50412.3
2016-Sep-18 09:25N 36°52' W 013°01'15411.9
2016-Sep-17 20:28N 39°21' W 012°10'2212.2
2016-Sep-17 18:40N 39°42' W 012°02'  
2016-Sep-15 04:33N 49°53' W 003°12'1110.8
2016-Sep-15 03:33N 49°58' W 002°57'6813.7
2016-Sep-14 22:33N 50°17' W 001°15'1312.8
2016-Sep-14 21:33N 50°20' W 000°56'4110.2
2016-Sep-14 17:32N 50°31' E 000°07'1111.4
2016-Sep-14 16:33N 50°34' E 000°24'3812.6
2016-Sep-14 13:33N 50°54' E 001°14'1111.2
2016-Sep-14 12:33N 51°02' E 001°27'19 9.4
2016-Sep-14 10:33N 51°15' E 001°47'1010.5
2016-Sep-14 09:33N 51°25' E 001°55'1212.0
2016-Sep-14 08:33N 51°34' E 002°07'1312.9
2016-Sep-14 07:34N 51°44' E 002°20'1413.5
2016-Sep-14 06:30N 51°57' E 002°30'14011.7
2016-Sep-13 18:29N 54°00' E 004°19'1111.4
2016-Sep-13 17:32N 54°09' E 004°30'1211.7
2016-Sep-13 16:32N 54°19' E 004°40'27810.7
2016-Sep-12 14:33N 57°52' E 009°59'1110.6
2016-Sep-12 13:33N 57°53' E 010°19'1410.5
2016-Sep-12 12:12N 57°51' E 010°46'710.8
2016-Sep-12 11:33N 57°48' E 010°57'1110.9
2016-Sep-12 10:33N 57°42' E 011°15'20 6.7
2016-Sep-12 07:31N 57°41' E 011°53'0 0.0
2016-Sep-12 06:31N 57°41' E 011°53'0 0.0
2016-Sep-12 03:31N 57°41' E 011°53'0 0.0
2016-Sep-12 01:31N 57°41' E 011°53'0 0.0
2016-Sep-11 23:31N 57°41' E 011°53'0 0.0
2016-Sep-11 22:31N 57°41' E 011°53'0 0.0
2016-Sep-11 21:31N 57°41' E 011°53'0 0.0
2016-Sep-11 20:31N 57°41' E 011°53'0 0.0
2016-Sep-11 19:31N 57°41' E 011°53'0 0.0
2016-Sep-11 18:31N 57°41' E 011°53'0 0.0
2016-Sep-11 17:31N 57°41' E 011°53'0 0.0
2016-Sep-11 16:31N 57°41' E 011°53'0 0.0
2016-Sep-11 15:31N 57°41' E 011°53'0 0.0
2016-Sep-11 14:31N 57°41' E 011°53'0 0.0
2016-Sep-11 13:31N 57°41' E 011°53'0 0.0
2016-Sep-11 12:31N 57°41' E 011°53'0 0.0
2016-Sep-11 11:31N 57°41' E 011°53'0 0.0
2016-Sep-11 08:31N 57°41' E 011°53'0 0.0
2016-Sep-11 07:31N 57°41' E 011°53'0 0.0
2016-Sep-11 03:31N 57°41' E 011°53'0 0.0
2016-Sep-11 02:31N 57°41' E 011°53'0 0.0
2016-Sep-11 01:31N 57°41' E 011°53'0 0.0
2016-Sep-11 00:31N 57°41' E 011°53'0 0.0
2016-Sep-10 23:31N 57°41' E 011°53'0 0.0
2016-Sep-10 22:31N 57°41' E 011°53'0 0.0
2016-Sep-10 21:31N 57°41' E 011°53'0 0.1
2016-Sep-10 20:34N 57°41' E 011°53'4 3.6
2016-Sep-10 19:33N 57°40' E 011°47'5 5.1
2016-Sep-10 18:31N 57°36' E 011°40'0 0.0
2016-Sep-10 17:25N 57°36' E 011°40'0 0.0
2016-Sep-10 16:28N 57°36' E 011°40'0 0.0
2016-Sep-10 15:31N 57°36' E 011°40'0 0.0
2016-Sep-10 14:31N 57°36' E 011°40'0 0.0
2016-Sep-10 13:31N 57°36' E 011°40'0 0.0
2016-Sep-10 12:31N 57°36' E 011°40'0 0.0
2016-Sep-10 11:31N 57°36' E 011°40'0 0.0
2016-Sep-10 10:31N 57°36' E 011°40'0 0.0
2016-Sep-10 09:31N 57°36' E 011°40'0 0.0
2016-Sep-10 08:31N 57°36' E 011°40'0 0.0
2016-Sep-10 07:31N 57°36' E 011°40'0 0.0
2016-Sep-10 06:31N 57°36' E 011°40'  
Track history (hours):
 
Tides and Currents Weather Stations Pressure Air Temp Water Temp Dewpoint Dewpoint Depression Visibility Wind Speed Wind Dir Waves Ship Positions

Elisalex Schulte

Last reported at 2016-Sep-20 06:29 UTC. Time now 2016-Sep-25 10:36 UTC.
Position N 28°29' W 016°14'.

Length 144 m; draft 8.9 m.

Type: Tanker. MMSI: 563052000.

Date/timePositionNaut miles runAvg speedWind from/ knotsBaromVisibWave heightAir tempDewpointWater temp
2016-Sep-20 06:29N 28°29' W 016°14'35 8.8
2016-Sep-20 02:33N 28°45' W 015°38'50412.3
2016-Sep-18 09:25N 36°52' W 013°01'15411.9
2016-Sep-17 20:28N 39°21' W 012°10'2212.2
2016-Sep-17 18:40N 39°42' W 012°02'  
2016-Sep-15 04:33N 49°53' W 003°12'1110.8
2016-Sep-15 03:33N 49°58' W 002°57'6813.7
2016-Sep-14 22:33N 50°17' W 001°15'1312.8
2016-Sep-14 21:33N 50°20' W 000°56'4110.2
2016-Sep-14 17:32N 50°31' E 000°07'1111.4
2016-Sep-14 16:33N 50°34' E 000°24'3812.6
2016-Sep-14 13:33N 50°54' E 001°14'1111.2
2016-Sep-14 12:33N 51°02' E 001°27'19 9.4
2016-Sep-14 10:33N 51°15' E 001°47'1010.5
2016-Sep-14 09:33N 51°25' E 001°55'1212.0
2016-Sep-14 08:33N 51°34' E 002°07'1312.9
2016-Sep-14 07:34N 51°44' E 002°20'1413.5
2016-Sep-14 06:30N 51°57' E 002°30'14011.7
2016-Sep-13 18:29N 54°00' E 004°19'1111.4
2016-Sep-13 17:32N 54°09' E 004°30'1211.7
2016-Sep-13 16:32N 54°19' E 004°40'27810.7
2016-Sep-12 14:33N 57°52' E 009°59'1110.6
2016-Sep-12 13:33N 57°53' E 010°19'1410.5
2016-Sep-12 12:12N 57°51' E 010°46'710.8
2016-Sep-12 11:33N 57°48' E 010°57'1110.9
2016-Sep-12 10:33N 57°42' E 011°15'20 6.7
2016-Sep-12 07:31N 57°41' E 011°53'0 0.0
2016-Sep-12 06:31N 57°41' E 011°53'0 0.0
2016-Sep-12 03:31N 57°41' E 011°53'0 0.0
2016-Sep-12 01:31N 57°41' E 011°53'0 0.0
2016-Sep-11 23:31N 57°41' E 011°53'0 0.0
2016-Sep-11 22:31N 57°41' E 011°53'0 0.0
2016-Sep-11 21:31N 57°41' E 011°53'0 0.0
2016-Sep-11 20:31N 57°41' E 011°53'0 0.0
2016-Sep-11 19:31N 57°41' E 011°53'0 0.0
2016-Sep-11 18:31N 57°41' E 011°53'0 0.0
2016-Sep-11 17:31N 57°41' E 011°53'0 0.0
2016-Sep-11 16:31N 57°41' E 011°53'0 0.0
2016-Sep-11 15:31N 57°41' E 011°53'0 0.0
2016-Sep-11 14:31N 57°41' E 011°53'0 0.0
2016-Sep-11 13:31N 57°41' E 011°53'0 0.0
2016-Sep-11 12:31N 57°41' E 011°53'0 0.0
2016-Sep-11 11:31N 57°41' E 011°53'0 0.0
2016-Sep-11 08:31N 57°41' E 011°53'0 0.0
2016-Sep-11 07:31N 57°41' E 011°53'0 0.0
2016-Sep-11 03:31N 57°41' E 011°53'0 0.0
2016-Sep-11 02:31N 57°41' E 011°53'0 0.0
2016-Sep-11 01:31N 57°41' E 011°53'0 0.0
2016-Sep-11 00:31N 57°41' E 011°53'0 0.0
2016-Sep-10 23:31N 57°41' E 011°53'0 0.0
2016-Sep-10 22:31N 57°41' E 011°53'0 0.0
2016-Sep-10 21:31N 57°41' E 011°53'0 0.1
2016-Sep-10 20:34N 57°41' E 011°53'4 3.6
2016-Sep-10 19:33N 57°40' E 011°47'5 5.1
2016-Sep-10 18:31N 57°36' E 011°40'0 0.0
2016-Sep-10 17:25N 57°36' E 011°40'0 0.0
2016-Sep-10 16:28N 57°36' E 011°40'0 0.0
2016-Sep-10 15:31N 57°36' E 011°40'0 0.0
2016-Sep-10 14:31N 57°36' E 011°40'0 0.0
2016-Sep-10 13:31N 57°36' E 011°40'0 0.0
2016-Sep-10 12:31N 57°36' E 011°40'0 0.0
2016-Sep-10 11:31N 57°36' E 011°40'0 0.0
2016-Sep-10 10:31N 57°36' E 011°40'0 0.0
2016-Sep-10 09:31N 57°36' E 011°40'0 0.0
2016-Sep-10 08:31N 57°36' E 011°40'0 0.0
2016-Sep-10 07:31N 57°36' E 011°40'0 0.0
2016-Sep-10 06:31N 57°36' E 011°40'  

Dump ship's entire track history